Time;durP1;ratioP1;P1;durP2;ratioP2;P2;SDS_P1;SDS_P2;PMS_P1;PMS_P2;Temp;Humidity;BMP_temperature;BMP_pressure;BME280_temperature;BME280_humidity;BME280_pressure;Samples;Min_cycle;Max_cycle;Signal;HPM_P1;HPM_P2
2022/08/18 00:01:39;;;;;;;;;;;;;;;24.77;43.63;99401.88;4391593;32;33067;-81
2022/08/18 00:04:09;;;;;;;;;;;;;;;24.96;42.98;99394.47;4378877;32;33904;-81
2022/08/18 00:06:56;;;;;;;;;;;;;;;24.94;43.08;99396.50;4392202;32;32533;-81
2022/08/18 00:09:25;;;;;;;;;;;;;;;24.94;43.21;99405.44;4378423;32;34261;-81
2022/08/18 00:11:59;;;;;;;;;;;;;;;24.94;43.60;99396.50;4380085;32;33932;-80
2022/08/18 00:14:27;;;;;;;;;;;;;;;25.07;43.09;99394.19;4379737;32;33608;-80
2022/08/18 00:16:55;;;;;;;;;;;;;;;24.86;44.16;99393.78;4390988;32;33488;-80
2022/08/18 00:19:23;;;;;;;;;;;;;;;24.82;44.27;99395.12;4391930;32;33896;-80
2022/08/18 00:22:12;;;;;;;;;;;;;;;24.82;44.41;99389.75;4391804;32;33200;-80
2022/08/18 00:24:42;;;;;;;;;;;;;;;24.72;44.41;99387.22;4379102;32;35033;-80
2022/08/18 00:27:20;;;;;;;;;;;;;;;24.36;45.29;99392.03;4392196;32;34038;-81
2022/08/18 00:29:50;;;;;;;;;;;;;;;24.55;44.89;99397.16;4391252;32;32970;-80
2022/08/18 00:32:26;;;;;;;;;;;;;;;24.46;45.02;99393.59;4392867;32;34175;-81
2022/08/18 00:34:54;;;;;;;;;;;;;;;24.63;44.41;99394.44;4391122;32;34232;-80
2022/08/18 00:37:22;;;;;;;;;;;;;;;24.54;44.61;99392.75;4391389;32;34498;-80
2022/08/18 00:39:53;;;;;;;;;;;;;;;24.50;44.89;99389.56;4390025;32;33944;-80
2022/08/18 00:42:23;;;;;;;;;;;;;;;24.50;45.02;99388.72;4379389;32;34274;-81
2022/08/18 00:45:00;;;;;;;;;;;;;;;24.31;45.51;99394.34;4391472;32;33905;-80
2022/08/18 00:47:29;;;;;;;;;;;;;;;24.23;45.96;99392.50;4390930;32;33275;-81
2022/08/18 00:50:35;;;;;;;;;;;;;;;24.18;46.16;99400.25;4390217;32;33371;-80
2022/08/18 00:53:08;;;;;;;;;;;;;;;24.22;46.36;99401.59;4362926;32;33242;-81
2022/08/18 00:55:36;;;;;;;;;;;;;;;24.17;46.26;99402.09;4391733;32;33939;-81
2022/08/18 00:58:08;;;;;;;;;;;;;;;24.23;46.08;99401.44;4378694;32;33010;-81
2022/08/18 01:00:36;;;;;;;;;;;;;;;24.15;46.40;99398.69;4379319;32;34176;-81
2022/08/18 01:03:11;;;;;;;;;;;;;;;24.23;46.07;99404.13;4379167;32;33768;-81
2022/08/18 01:05:42;;;;;;;;;;;;;;;24.08;46.27;99400.38;4379114;32;33759;-81
2022/08/18 01:08:13;;;;;;;;;;;;;;;23.86;46.91;99395.56;4391406;32;33733;-80
2022/08/18 01:14:47;;;;;;;;;;;;;;;23.84;47.21;99401.13;4323886;33;35485;-82
2022/08/18 01:22:59;;;;;;;;;;;;;;;23.87;47.78;99410.72;4352903;32;34138;-81
2022/08/18 01:28:16;;;;;;;;;;;;;;;23.88;47.75;99417.78;4347958;32;33680;-82
2022/08/18 01:30:48;;;;;;;;;;;;;;;23.82;47.96;99424.69;4352204;32;32601;-82
2022/08/18 01:33:16;;;;;;;;;;;;;;;24.09;47.47;99417.41;4352318;32;34107;-82
2022/08/18 01:35:47;;;;;;;;;;;;;;;24.13;47.03;99411.50;4346577;32;34940;-81
2022/08/18 01:38:17;;;;;;;;;;;;;;;23.92;47.59;99416.47;4349873;32;34850;-81
2022/08/18 01:40:47;;;;;;;;;;;;;;;23.48;48.85;99425.47;4342646;32;33977;-81
2022/08/18 01:43:36;;;;;;;;;;;;;;;23.59;48.48;99418.97;4336036;32;33495;-81
2022/08/18 01:46:05;;;;;;;;;;;;;;;23.69;48.52;99425.16;4333971;32;34912;-81
2022/08/18 01:52:36;;;;;;;;;;;;;;;23.56;49.19;99422.00;4286283;33;33412;-81
2022/08/18 01:55:06;;;;;;;;;;;;;;;23.96;47.04;99425.94;4293773;33;33934;-80
2022/08/18 01:57:41;;;;;;;;;;;;;;;23.58;48.78;99430.75;4295785;33;33219;-81
2022/08/18 02:00:13;;;;;;;;;;;;;;;23.62;48.50;99434.81;4308680;33;34011;-80
2022/08/18 02:02:41;;;;;;;;;;;;;;;23.66;48.70;99432.69;4321419;33;33757;-81
2022/08/18 02:05:13;;;;;;;;;;;;;;;23.60;49.07;99427.94;4321784;33;34136;-81
2022/08/18 02:07:41;;;;;;;;;;;;;;;23.53;49.18;99427.69;4322608;33;34631;-81
2022/08/18 02:10:12;;;;;;;;;;;;;;;23.55;48.96;99423.00;4309681;33;34364;-81
2022/08/18 02:12:43;;;;;;;;;;;;;;;23.40;48.91;99416.50;4320687;33;34251;-81
2022/08/18 02:15:11;;;;;;;;;;;;;;;23.46;49.16;99418.56;4308750;33;34574;-81
2022/08/18 02:17:39;;;;;;;;;;;;;;;23.46;49.12;99418.56;4317458;33;33405;-81
2022/08/18 02:20:15;;;;;;;;;;;;;;;23.57;48.57;99423.69;4320991;33;34946;-81
2022/08/18 02:22:45;;;;;;;;;;;;;;;23.62;48.53;99424.03;4308556;33;33347;-82
2022/08/18 02:25:13;;;;;;;;;;;;;;;23.80;48.18;99423.19;4307947;33;34071;-81
2022/08/18 02:27:41;;;;;;;;;;;;;;;23.49;49.03;99423.63;4311589;33;33859;-81
2022/08/18 02:30:10;;;;;;;;;;;;;;;23.16;50.26;99426.09;4390081;32;34125;-81
2022/08/18 02:32:39;;;;;;;;;;;;;;;23.25;49.92;99435.06;4377540;32;32988;-81
2022/08/18 02:35:08;;;;;;;;;;;;;;;23.12;50.18;99432.81;4378210;32;34910;-81
2022/08/18 02:37:41;;;;;;;;;;;;;;;23.26;49.83;99436.75;4390773;32;35151;-81
2022/08/18 02:40:11;;;;;;;;;;;;;;;23.22;50.37;99436.25;4378696;32;34137;-81
2022/08/18 02:42:42;;;;;;;;;;;;;;;23.30;49.96;99426.53;4378429;32;33394;-81
2022/08/18 02:45:11;;;;;;;;;;;;;;;23.19;50.21;99430.31;4391123;32;34121;-82
2022/08/18 02:47:39;;;;;;;;;;;;;;;23.03;50.83;99430.22;4391047;32;34149;-82
2022/08/18 02:50:09;;;;;;;;;;;;;;;23.09;50.39;99435.81;4391316;32;34202;-81
2022/08/18 02:52:37;;;;;;;;;;;;;;;23.19;50.00;99433.03;4390434;32;32187;-81
2022/08/18 02:55:07;;;;;;;;;;;;;;;23.39;49.66;99441.75;4377826;32;33878;-81
2022/08/18 02:57:35;;;;;;;;;;;;;;;23.18;50.62;99437.56;4378206;32;36110;-81
2022/08/18 03:00:04;;;;;;;;;;;;;;;22.90;51.39;99441.38;4392089;32;34366;-81
2022/08/18 03:02:32;;;;;;;;;;;;;;;22.70;52.02;99452.25;4378210;32;33612;-82
2022/08/18 03:05:00;;;;;;;;;;;;;;;22.86;51.46;99442.63;4390217;32;34219;-81
2022/08/18 03:07:27;;;;;;;;;;;;;;;23.03;50.83;99447.22;4376642;32;34778;-82
2022/08/18 03:09:56;;;;;;;;;;;;;;;22.91;51.53;99448.44;4390045;32;34603;-82
2022/08/18 03:12:29;;;;;;;;;;;;;;;22.85;51.75;99444.50;4390079;32;33046;-82
2022/08/18 03:15:00;;;;;;;;;;;;;;;22.93;51.45;99457.19;4391878;32;34139;-81
2022/08/18 03:17:28;;;;;;;;;;;;;;;22.95;51.40;99453.34;4391925;32;35407;-82
2022/08/18 03:19:59;;;;;;;;;;;;;;;22.86;52.32;99465.00;4376221;32;33611;-81
2022/08/18 03:22:32;;;;;;;;;;;;;;;22.71;52.57;99461.16;4390714;32;33294;-82
2022/08/18 03:25:09;;;;;;;;;;;;;;;22.86;52.06;99458.78;4378174;32;34093;-80
2022/08/18 03:27:37;;;;;;;;;;;;;;;22.85;52.48;99451.72;4390224;32;33941;-81
2022/08/18 03:30:11;;;;;;;;;;;;;;;22.80;52.62;99457.56;4389565;32;34633;-81
2022/08/18 03:32:40;;;;;;;;;;;;;;;22.85;52.36;99449.88;4390483;32;33082;-81
2022/08/18 03:35:16;;;;;;;;;;;;;;;22.52;53.21;99451.38;4390782;32;34246;-82
2022/08/18 03:37:43;;;;;;;;;;;;;;;22.31;53.87;99457.03;4376948;32;33992;-81
2022/08/18 03:40:11;;;;;;;;;;;;;;;22.66;52.83;99448.19;4378034;32;35607;-82
2022/08/18 03:42:38;;;;;;;;;;;;;;;22.55;53.48;99448.41;4390335;32;32085;-81
2022/08/18 03:45:11;;;;;;;;;;;;;;;22.61;53.46;99442.41;4377748;32;33753;-81
2022/08/18 03:47:44;;;;;;;;;;;;;;;22.43;53.81;99455.81;4389952;32;34709;-82
2022/08/18 03:50:12;;;;;;;;;;;;;;;22.65;53.23;99456.41;4389919;32;34795;-82
2022/08/18 03:52:40;;;;;;;;;;;;;;;22.85;52.64;99446.34;4364119;32;32646;-82
2022/08/18 03:55:16;;;;;;;;;;;;;;;22.76;53.12;99448.09;4377625;32;33384;-82
2022/08/18 03:57:44;;;;;;;;;;;;;;;22.75;53.14;99449.94;4390200;32;32875;-82
2022/08/18 04:00:13;;;;;;;;;;;;;;;22.62;53.63;99454.00;4389190;32;33905;-82
2022/08/18 04:02:41;;;;;;;;;;;;;;;22.63;53.89;99461.09;4376990;32;34113;-81
2022/08/18 04:05:11;;;;;;;;;;;;;;;22.93;52.70;99457.19;4377310;32;33375;-81
2022/08/18 04:07:41;;;;;;;;;;;;;;;22.84;53.37;99455.41;4391545;32;34098;-82
2022/08/18 04:10:12;;;;;;;;;;;;;;;22.86;53.55;99445.31;4393423;32;33952;-81
2022/08/18 04:12:46;;;;;;;;;;;;;;;22.13;55.75;99451.63;4380786;32;31723;-81
2022/08/18 04:15:16;;;;;;;;;;;;;;;22.20;55.61;99455.38;4392118;32;34053;-81
2022/08/18 04:17:45;;;;;;;;;;;;;;;21.98;57.45;99463.81;4365661;32;34511;-81
2022/08/18 04:20:39;;;;;;;;;;;;;;;22.08;58.28;99456.56;4379226;32;33013;-82
2022/08/18 04:23:26;;;;;;;;;;;;;;;22.58;56.95;99456.16;4392447;32;31642;-82
2022/08/18 04:25:58;;;;;;;;;;;;;;;22.98;58.18;99444.13;4392181;32;34946;-81
2022/08/18 04:28:26;;;;;;;;;;;;;;;23.23;54.43;99443.31;4367244;32;33500;-83
2022/08/18 04:30:58;;;;;;;;;;;;;;;23.24;54.56;99450.41;4391919;32;34221;-82
2022/08/18 04:33:27;;;;;;;;;;;;;;;23.19;56.53;99450.03;4392304;32;32732;-81
2022/08/18 04:35:54;;;;;;;;;;;;;;;23.36;58.23;99452.81;4391973;32;33832;-81
2022/08/18 04:38:23;;;;;;;;;;;;;;;23.82;54.48;99442.72;4379083;32;35030;-81
2022/08/18 04:40:50;;;;;;;;;;;;;;;23.58;56.54;99441.53;4392157;32;35002;-81
2022/08/18 04:43:19;;;;;;;;;;;;;;;23.54;58.53;99439.31;4393220;32;33485;-82
2022/08/18 04:45:50;;;;;;;;;;;;;;;23.98;58.09;99449.06;4390698;32;33400;-83
2022/08/18 04:48:20;;;;;;;;;;;;;;;24.12;58.29;99453.00;4379570;32;35101;-82
2022/08/18 04:50:49;;;;;;;;;;;;;;;24.32;58.15;99452.72;4388038;32;35206;-82
2022/08/18 04:56:07;;;;;;;;;;;;;;;24.96;56.28;99453.88;4388624;32;33774;-81
2022/08/18 04:58:36;;;;;;;;;;;;;;;25.19;56.00;99454.94;4377389;32;34325;-81
2022/08/18 05:01:09;;;;;;;;;;;;;;;25.15;55.90;99447.34;4375003;32;33764;-81
2022/08/18 05:03:37;;;;;;;;;;;;;;;25.20;55.54;99448.53;4377348;32;32706;-81
2022/08/18 05:06:17;;;;;;;;;;;;;;;25.57;54.91;99447.13;4388418;32;33168;-81
2022/08/18 05:08:47;;;;;;;;;;;;;;;25.94;54.05;99438.44;4387962;32;33448;-82
2022/08/18 05:11:14;;;;;;;;;;;;;;;26.09;53.48;99440.44;4382957;32;33615;-81
2022/08/18 05:13:42;;;;;;;;;;;;;;;26.30;52.81;99428.00;4377582;32;32966;-82
2022/08/18 05:16:11;;;;;;;;;;;;;;;26.06;53.25;99430.78;4380217;32;33704;-82
2022/08/18 05:18:47;;;;;;;;;;;;;;;26.36;52.79;99433.72;4388829;32;35126;-81
2022/08/18 05:21:20;;;;;;;;;;;;;;;26.59;51.91;99431.91;4390757;32;34145;-82
2022/08/18 05:23:52;;;;;;;;;;;;;;;26.84;51.69;99435.28;4364508;32;30677;-82
2022/08/18 05:26:20;;;;;;;;;;;;;;;26.79;51.41;99437.69;4377506;32;34155;-83
2022/08/18 05:28:48;;;;;;;;;;;;;;;26.70;51.74;99447.75;4388091;32;33764;-82
2022/08/18 05:31:27;;;;;;;;;;;;;;;26.94;51.03;99456.72;4385055;32;34159;-82
2022/08/18 05:33:55;;;;;;;;;;;;;;;27.10;50.73;99439.50;4389096;32;31900;-84
2022/08/18 05:36:51;;;;;;;;;;;;;;;27.14;50.51;99443.56;4367100;32;33186;-83
2022/08/18 05:39:25;;;;;;;;;;;;;;;27.41;50.25;99447.56;4390841;32;34124;-83
2022/08/18 05:42:06;;;;;;;;;;;;;;;27.61;49.44;99443.28;4388448;32;33325;-83
2022/08/18 05:44:36;;;;;;;;;;;;;;;27.38;49.74;99443.31;4386591;32;34517;-83
2022/08/18 05:47:30;;;;;;;;;;;;;;;27.41;50.05;99458.41;4379525;32;33812;-83
2022/08/18 05:50:03;;;;;;;;;;;;;;;27.46;49.42;99439.72;4377938;32;35206;-82
2022/08/18 05:52:54;;;;;;;;;;;;;;;27.70;48.89;99442.16;4390636;32;33026;-83
2022/08/18 05:58:16;;;;;;;;;;;;;;;27.71;48.77;99452.00;4391682;32;33710;-82
2022/08/18 06:00:54;;;;;;;;;;;;;;;27.90;48.44;99449.78;4377934;32;34386;-83
2022/08/18 06:03:33;;;;;;;;;;;;;;;28.35;47.20;99442.50;4389761;32;33847;-83
2022/08/18 06:06:20;;;;;;;;;;;;;;;28.29;47.46;99450.28;4378232;32;32460;-83
2022/08/18 06:09:12;;;;;;;;;;;;;;;28.36;47.05;99452.31;4376916;32;33855;-83
2022/08/18 06:11:43;;;;;;;;;;;;;;;28.36;46.89;99446.88;4375320;32;34070;-83
2022/08/18 06:14:16;;;;;;;;;;;;;;;28.26;46.92;99458.84;4387813;32;34876;-83
2022/08/18 06:16:57;;;;;;;;;;;;;;;28.45;46.10;99462.03;4389427;32;33254;-83
2022/08/18 06:19:43;;;;;;;;;;;;;;;28.22;46.46;99457.53;4390146;32;34241;-83
2022/08/18 06:22:22;;;;;;;;;;;;;;;28.77;45.80;99466.13;4389879;32;33847;-83
2022/08/18 06:25:00;;;;;;;;;;;;;;;28.83;45.23;99465.38;4385409;32;32826;-82
2022/08/18 06:27:38;;;;;;;;;;;;;;;28.87;45.38;99458.53;4389732;32;33296;-82
2022/08/18 06:30:07;;;;;;;;;;;;;;;28.70;45.26;99460.63;4375925;32;33841;-82
2022/08/18 06:33:06;;;;;;;;;;;;;;;28.53;45.24;99457.34;4377861;32;34103;-82
2022/08/18 06:35:46;;;;;;;;;;;;;;;28.44;46.65;99454.88;4378752;32;33941;-82
2022/08/18 06:38:40;;;;;;;;;;;;;;;29.14;44.89;99454.22;4388617;32;33024;-83
2022/08/18 06:41:15;;;;;;;;;;;;;;;29.34;44.19;99457.97;4385049;32;34642;-82
2022/08/18 06:44:11;;;;;;;;;;;;;;;29.11;44.87;99464.66;4386955;32;32806;-83
2022/08/18 06:46:48;;;;;;;;;;;;;;;28.89;44.91;99458.34;4366017;32;34887;-84
2022/08/18 06:49:30;;;;;;;;;;;;;;;28.95;45.29;99469.28;4378860;32;32670;-83
2022/08/18 06:51:58;;;;;;;;;;;;;;;29.23;44.46;99460.34;4365452;32;32787;-83
2022/08/18 06:54:28;;;;;;;;;;;;;;;28.87;45.10;99457.69;4388654;32;33957;-83
2022/08/18 06:56:57;;;;;;;;;;;;;;;28.95;44.86;99446.72;4374849;32;33757;-84
2022/08/18 06:59:31;;;;;;;;;;;;;;;29.39;44.71;99441.06;4382868;32;33278;-84
2022/08/18 07:02:19;;;;;;;;;;;;;;;29.21;45.30;99441.53;4368243;32;32682;-82
2022/08/18 07:04:58;;;;;;;;;;;;;;;29.03;44.69;99444.72;4392134;32;34094;-85
2022/08/18 07:07:38;;;;;;;;;;;;;;;29.15;44.33;99441.44;4391966;32;34796;-84
2022/08/18 07:10:14;;;;;;;;;;;;;;;29.52;44.38;99435.69;4370857;32;34230;-83
2022/08/18 07:12:43;;;;;;;;;;;;;;;29.65;45.08;99436.87;4367354;32;34528;-83
2022/08/18 07:15:13;;;;;;;;;;;;;;;29.98;43.29;99431.63;4376159;32;34826;-83
2022/08/18 07:17:41;;;;;;;;;;;;;;;29.90;42.71;99438.06;4378219;32;33133;-83
2022/08/18 07:20:20;;;;;;;;;;;;;;;29.88;43.84;99433.88;4365412;32;33762;-83
2022/08/18 07:22:52;;;;;;;;;;;;;;;30.00;42.45;99424.09;4370274;32;33982;-83
2022/08/18 07:25:23;;;;;;;;;;;;;;;30.24;41.70;99429.06;4372873;32;34637;-83
2022/08/18 07:27:54;;;;;;;;;;;;;;;29.92;42.36;99433.28;4381032;32;33770;-83
2022/08/18 07:30:23;;;;;;;;;;;;;;;30.40;41.86;99424.31;4381185;32;33935;-80
2022/08/18 07:33:03;;;;;;;;;;;;;;;30.62;41.69;99428.53;4377438;32;34132;-81
2022/08/18 07:35:38;;;;;;;;;;;;;;;30.88;40.93;99426.97;4374770;32;32999;-81
2022/08/18 07:38:16;;;;;;;;;;;;;;;30.58;40.30;99430.03;4371219;32;33525;-82
2022/08/18 07:41:06;;;;;;;;;;;;;;;30.60;40.02;99425.19;4366138;32;32160;-83
2022/08/18 07:43:53;;;;;;;;;;;;;;;30.61;39.78;99424.13;4377505;32;34188;-81
2022/08/18 07:46:29;;;;;;;;;;;;;;;30.83;39.92;99427.59;4369703;32;33442;-82
2022/08/18 07:48:58;;;;;;;;;;;;;;;30.70;38.89;99425.62;4366193;32;33491;-82
2022/08/18 07:51:28;;;;;;;;;;;;;;;31.04;39.05;99416.47;4375617;32;33835;-83
2022/08/18 07:54:07;;;;;;;;;;;;;;;31.19;38.90;99434.53;4376522;32;34925;-82
2022/08/18 07:57:13;;;;;;;;;;;;;;;31.31;38.55;99439.19;4384851;32;34018;-83
2022/08/18 07:59:56;;;;;;;;;;;;;;;31.37;38.06;99445.69;4378320;32;33083;-80
2022/08/18 08:02:39;;;;;;;;;;;;;;;31.60;37.70;99443.34;4361413;32;33041;-79
2022/08/18 08:05:14;;;;;;;;;;;;;;;31.65;37.93;99445.44;4364696;32;33057;-82
2022/08/18 08:07:57;;;;;;;;;;;;;;;31.97;37.24;99451.94;4378606;32;34011;-82
2022/08/18 08:10:34;;;;;;;;;;;;;;;32.03;37.82;99452.97;4375813;32;34321;-82
2022/08/18 08:13:02;;;;;;;;;;;;;;;31.78;38.46;99461.81;4389762;32;33321;-79
2022/08/18 08:16:00;;;;;;;;;;;;;;;32.05;38.73;99468.09;4378741;32;33116;-82
2022/08/18 08:18:32;;;;;;;;;;;;;;;32.63;36.18;99461.78;4379600;32;33887;-82
2022/08/18 08:21:11;;;;;;;;;;;;;;;32.56;36.78;99464.53;4390049;32;34361;-82
2022/08/18 08:23:56;;;;;;;;;;;;;;;32.42;37.66;99467.56;4365234;32;32378;-82
2022/08/18 08:26:25;;;;;;;;;;;;;;;32.67;36.67;99475.87;4390017;32;34041;-80
2022/08/18 08:28:59;;;;;;;;;;;;;;;33.06;34.41;99472.09;4377323;32;33189;-80
2022/08/18 08:31:29;;;;;;;;;;;;;;;33.26;34.16;99475.50;4378261;32;34911;-80
2022/08/18 08:34:07;;;;;;;;;;;;;;;33.51;33.83;99461.00;4377098;32;33190;-81
2022/08/18 08:36:39;;;;;;;;;;;;;;;33.42;34.73;99467.78;4373345;32;34392;-80
2022/08/18 08:39:10;;;;;;;;;;;;;;;33.75;33.00;99460.13;4376168;32;32720;-80
2022/08/18 08:41:38;;;;;;;;;;;;;;;33.88;32.85;99457.28;4378025;32;34309;-80
2022/08/18 08:44:20;;;;;;;;;;;;;;;33.64;34.30;99448.03;4383409;32;32878;-85
2022/08/18 08:46:54;;;;;;;;;;;;;;;33.77;32.88;99443.50;4374249;32;34041;-85
2022/08/18 08:49:26;;;;;;;;;;;;;;;34.10;32.86;99437.69;4384785;32;35145;-84
2022/08/18 08:52:00;;;;;;;;;;;;;;;33.85;32.19;99449.53;4373924;32;34048;-85
2022/08/18 08:54:40;;;;;;;;;;;;;;;34.15;31.80;99443.31;4373466;32;32570;-83
2022/08/18 08:57:15;;;;;;;;;;;;;;;33.78;32.48;99436.97;4375721;32;35804;-83
2022/08/18 08:59:46;;;;;;;;;;;;;;;34.08;33.02;99434.34;4375518;32;33251;-83
2022/08/18 09:02:28;;;;;;;;;;;;;;;34.31;31.80;99428.97;4387142;32;33296;-83
2022/08/18 09:05:23;;;;;;;;;;;;;;;34.36;31.76;99425.56;4363091;32;32818;-84
2022/08/18 09:08:01;;;;;;;;;;;;;;;34.33;31.94;99428.78;4386915;32;35063;-83
2022/08/18 09:10:29;;;;;;;;;;;;;;;34.28;31.38;99423.97;4376981;32;34070;-83
2022/08/18 09:13:18;;;;;;;;;;;;;;;34.15;31.69;99421.41;4383205;32;33421;-83
2022/08/18 09:15:52;;;;;;;;;;;;;;;34.20;32.50;99420.72;4382547;32;32386;-83
2022/08/18 09:18:32;;;;;;;;;;;;;;;35.07;30.91;99415.72;4375081;32;33875;-83
2022/08/18 09:21:26;;;;;;;;;;;;;;;35.07;30.26;99419.28;4375404;32;33344;-83
2022/08/18 09:24:06;;;;;;;;;;;;;;;34.67;31.32;99418.22;4371763;32;33794;-83
2022/08/18 09:26:42;;;;;;;;;;;;;;;34.77;30.55;99405.59;4359648;32;32494;-83
2022/08/18 09:29:22;;;;;;;;;;;;;;;35.18;32.65;99416.81;4375909;32;34308;-83
2022/08/18 09:32:11;;;;;;;;;;;;;;;35.51;29.58;99421.75;4376683;32;33243;-83
2022/08/18 09:34:40;;;;;;;;;;;;;;;35.39;29.47;99419.81;4385141;32;33873;-83
2022/08/18 09:37:15;;;;;;;;;;;;;;;35.10;29.34;99407.03;4376259;32;33423;-83
2022/08/18 09:43:10;;;;;;;;;;;;;;;34.92;30.24;99407.91;4373253;32;34579;-83
2022/08/18 09:45:58;;;;;;;;;;;;;;;35.05;30.48;99390.44;4374860;32;33220;-83
2022/08/18 09:48:28;;;;;;;;;;;;;;;35.35;28.89;99385.69;4370504;32;32430;-83
2022/08/18 09:51:14;;;;;;;;;;;;;;;35.51;28.67;99375.06;4376630;32;35445;-83
2022/08/18 09:54:12;;;;;;;;;;;;;;;35.44;29.03;99375.19;4353837;32;34059;-84
2022/08/18 09:56:48;;;;;;;;;;;;;;;35.72;28.71;99358.00;4372734;32;33855;-85
2022/08/18 09:59:31;;;;;;;;;;;;;;;35.63;28.02;99362.19;4374819;32;32749;-85
2022/08/18 10:02:05;;;;;;;;;;;;;;;35.75;28.71;99351.16;4370259;32;33251;-85
2022/08/18 10:04:49;;;;;;;;;;;;;;;35.71;28.66;99350.84;4375495;32;33803;-85
2022/08/18 10:07:32;;;;;;;;;;;;;;;35.56;28.59;99343.09;4369514;32;33844;-85
2022/08/18 10:10:30;;;;;;;;;;;;;;;36.22;27.61;99335.41;4383688;32;32621;-84
2022/08/18 10:13:25;;;;;;;;;;;;;;;36.23;26.86;99328.84;4376893;32;34006;-84
2022/08/18 10:15:53;;;;;;;;;;;;;;;36.23;28.12;99348.09;4389080;32;33273;-84
2022/08/18 10:18:25;;;;;;;;;;;;;;;36.03;26.83;99350.41;4388069;32;32982;-84
2022/08/18 10:21:10;;;;;;;;;;;;;;;36.58;25.75;99345.19;4364342;32;32434;-84
2022/08/18 10:23:55;;;;;;;;;;;;;;;36.61;26.12;99346.63;4380416;32;33292;-84
2022/08/18 10:26:47;;;;;;;;;;;;;;;36.66;27.34;99341.19;4389794;32;32986;-84
2022/08/18 10:29:23;;;;;;;;;;;;;;;36.50;27.80;99353.00;4376710;32;34516;-84
2022/08/18 10:31:57;;;;;;;;;;;;;;;36.61;28.05;99349.38;4389490;32;32258;-84
2022/08/18 10:34:48;;;;;;;;;;;;;;;36.74;25.48;99340.78;4376290;32;34417;-84
2022/08/18 10:37:29;;;;;;;;;;;;;;;36.98;25.59;99335.12;4370148;32;33384;-84
2022/08/18 10:40:17;;;;;;;;;;;;;;;37.02;25.41;99339.06;4387079;32;33932;-84
2022/08/18 10:43:10;;;;;;;;;;;;;;;37.27;26.28;99335.84;4376566;32;33144;-84
2022/08/18 10:45:58;;;;;;;;;;;;;;;37.21;26.07;99331.37;4368802;32;34361;-84
2022/08/18 10:49:15;;;;;;;;;;;;;;;36.98;27.04;99332.38;4374194;32;34264;-84
2022/08/18 10:54:52;;;;;;;;;;;;;;;37.26;24.95;99324.00;4387616;32;30404;-84
2022/08/18 10:57:27;;;;;;;;;;;;;;;37.20;23.56;99327.78;4385865;32;31762;-84
2022/08/18 11:00:08;;;;;;;;;;;;;;;37.40;24.78;99327.28;4360816;32;34073;-84
2022/08/18 11:02:44;;;;;;;;;;;;;;;37.35;24.65;99322.50;4373272;32;34274;-84
2022/08/18 11:05:17;;;;;;;;;;;;;;;38.09;24.67;99315.78;4373842;32;32499;-85
2022/08/18 11:08:02;;;;;;;;;;;;;;;38.00;24.74;99322.84;4371552;32;33276;-88
2022/08/18 11:10:53;;;;;;;;;;;;;;;37.80;23.71;99315.16;4371719;32;34059;-88
2022/08/18 11:13:46;;;;;;;;;;;;;;;38.17;23.22;99323.59;4370624;32;32839;-88
2022/08/18 11:16:19;;;;;;;;;;;;;;;38.08;23.31;99311.38;4381209;32;33114;-88
2022/08/18 11:18:55;;;;;;;;;;;;;;;38.18;23.33;99317.84;4374294;32;34424;-87
2022/08/18 11:21:34;;;;;;;;;;;;;;;38.24;23.28;99315.94;4383112;32;33871;-87
2022/08/18 11:24:26;;;;;;;;;;;;;;;38.12;24.51;99309.75;4380492;32;34352;-87
2022/08/18 11:27:16;;;;;;;;;;;;;;;37.74;23.64;99296.88;4369831;32;34026;-85
2022/08/18 11:29:50;;;;;;;;;;;;;;;38.14;22.92;99297.38;4370497;32;34821;-85
2022/08/18 11:32:28;;;;;;;;;;;;;;;38.34;22.94;99291.25;4370728;32;34555;-85
2022/08/18 11:35:09;;;;;;;;;;;;;;;37.48;24.20;99284.72;4374019;32;34637;-86
2022/08/18 11:37:53;;;;;;;;;;;;;;;38.01;24.08;99291.44;4368442;32;30310;-85
2022/08/18 11:40:32;;;;;;;;;;;;;;;38.19;23.28;99274.53;4382074;32;32750;-85
2022/08/18 11:43:25;;;;;;;;;;;;;;;38.23;23.05;99272.94;4361627;32;34727;-86
2022/08/18 11:46:24;;;;;;;;;;;;;;;38.13;22.96;99270.09;4379315;32;34384;-85
2022/08/18 11:49:18;;;;;;;;;;;;;;;38.37;23.25;99276.97;4372485;32;32410;-85
2022/08/18 11:51:57;;;;;;;;;;;;;;;38.79;22.44;99265.22;4370129;32;33222;-85
2022/08/18 11:54:40;;;;;;;;;;;;;;;39.08;21.54;99256.56;4380630;32;34753;-85
2022/08/18 11:57:28;;;;;;;;;;;;;;;38.83;22.01;99271.84;4369104;32;34191;-85
2022/08/18 12:00:22;;;;;;;;;;;;;;;38.47;24.13;99261.59;4373102;32;32777;-85
2022/08/18 12:05:43;;;;;;;;;;;;;;;38.65;25.50;99248.25;4371603;32;33182;-85
2022/08/18 12:08:34;;;;;;;;;;;;;;;38.25;23.73;99247.84;4361701;32;33167;-85
2022/08/18 12:14:32;;;;;;;;;;;;;;;39.08;21.74;99237.25;4358460;32;34415;-85
2022/08/18 12:17:06;;;;;;;;;;;;;;;39.01;21.35;99233.88;4370225;32;32706;-85
2022/08/18 12:19:41;;;;;;;;;;;;;;;38.91;23.77;99229.13;4355699;32;32712;-86
2022/08/18 12:22:15;;;;;;;;;;;;;;;38.76;23.20;99221.59;4369553;32;31830;-86
2022/08/18 12:24:49;;;;;;;;;;;;;;;38.62;23.44;99221.16;4358260;32;32865;-85
2022/08/18 12:27:22;;;;;;;;;;;;;;;38.40;22.55;99214.91;4368387;32;32942;-85
2022/08/18 12:30:04;;;;;;;;;;;;;;;38.66;22.25;99210.44;4359825;32;34596;-85
2022/08/18 12:32:38;;;;;;;;;;;;;;;38.48;21.68;99197.91;4361604;32;34601;-85
2022/08/18 12:35:23;;;;;;;;;;;;;;;38.41;22.51;99211.06;4344762;32;32613;-88
2022/08/18 12:38:12;;;;;;;;;;;;;;;38.32;22.14;99202.47;4358773;32;34764;-88
2022/08/18 12:40:43;;;;;;;;;;;;;;;38.64;22.33;99212.62;4371120;32;33978;-88
2022/08/18 12:43:12;;;;;;;;;;;;;;;38.72;23.97;99209.37;4370136;32;33892;-88
2022/08/18 12:45:40;;;;;;;;;;;;;;;38.45;23.14;99208.63;4358014;32;32345;-87
2022/08/18 12:48:11;;;;;;;;;;;;;;;38.70;21.39;99216.28;4342048;32;33443;-87
2022/08/18 12:50:39;;;;;;;;;;;;;;;39.13;20.80;99210.50;4359063;32;33385;-88
2022/08/18 12:53:26;;;;;;;;;;;;;;;39.60;20.86;99228.12;4369900;32;32907;-88
2022/08/18 12:56:28;;;;;;;;;;;;;;;39.55;20.89;99233.59;4357994;32;35026;-88
2022/08/18 12:59:07;;;;;;;;;;;;;;;39.53;20.54;99235.81;4358398;32;34173;-88
2022/08/18 13:01:38;;;;;;;;;;;;;;;39.37;21.37;99233.00;4358615;32;32987;-83
2022/08/18 13:04:08;;;;;;;;;;;;;;;39.46;20.20;99235.25;4352435;32;32486;-83
2022/08/18 13:06:47;;;;;;;;;;;;;;;39.42;21.06;99238.53;4364206;32;33856;-83
2022/08/18 13:09:31;;;;;;;;;;;;;;;40.01;19.13;99234.59;4362425;32;33943;-83
2022/08/18 13:12:22;;;;;;;;;;;;;;;39.39;19.74;99239.06;4372480;32;33773;-83
2022/08/18 13:14:54;;;;;;;;;;;;;;;39.47;20.67;99236.91;4382623;32;32025;-83
2022/08/18 13:17:26;;;;;;;;;;;;;;;39.42;19.59;99235.78;4350566;32;33898;-83
2022/08/18 13:20:08;;;;;;;;;;;;;;;38.72;20.65;99236.13;4379465;32;32835;-81
2022/08/18 13:22:40;;;;;;;;;;;;;;;39.33;19.58;99231.03;4386598;32;34688;-82
2022/08/18 13:25:10;;;;;;;;;;;;;;;39.63;20.81;99233.91;4363169;32;33410;-84
2022/08/18 13:27:40;;;;;;;;;;;;;;;39.48;20.50;99241.31;4375122;32;35953;-82
2022/08/18 13:30:20;;;;;;;;;;;;;;;39.30;20.10;99242.62;4372506;32;33957;-81
2022/08/18 13:33:00;;;;;;;;;;;;;;;39.53;19.53;99235.81;4384788;32;34361;-82
2022/08/18 13:35:49;;;;;;;;;;;;;;;39.70;19.58;99236.47;4382639;32;33543;-81
2022/08/18 13:38:22;;;;;;;;;;;;;;;39.88;18.97;99232.34;4373019;32;34862;-81
2022/08/18 13:40:57;;;;;;;;;;;;;;;39.38;19.05;99218.09;4383746;32;34218;-81
2022/08/18 13:43:30;;;;;;;;;;;;;;;39.76;19.24;99232.63;4374618;32;34041;-81
2022/08/18 13:46:01;;;;;;;;;;;;;;;39.78;19.11;99230.41;4386102;32;31896;-81
2022/08/18 13:48:35;;;;;;;;;;;;;;;39.84;18.58;99226.56;4386925;32;33575;-82
2022/08/18 13:51:09;;;;;;;;;;;;;;;38.97;20.03;99227.22;4368270;32;32796;-81
2022/08/18 13:53:43;;;;;;;;;;;;;;;39.08;19.86;99226.19;4384794;32;32906;-82
2022/08/18 13:56:29;;;;;;;;;;;;;;;39.36;18.93;99231.34;4362766;32;31706;-81
2022/08/18 13:58:59;;;;;;;;;;;;;;;39.18;18.90;99234.53;4386652;32;33762;-81
2022/08/18 14:01:27;;;;;;;;;;;;;;;39.40;19.29;99226.91;4370265;32;34213;-82
2022/08/18 14:04:18;;;;;;;;;;;;;;;39.42;18.52;99221.97;4366427;32;33825;-81
2022/08/18 14:06:54;;;;;;;;;;;;;;;39.12;18.90;99230.06;4382907;32;32748;-81
2022/08/18 14:09:27;;;;;;;;;;;;;;;38.95;19.10;99229.44;4379427;32;34366;-81